createdAt,value
2019-04-16T00:00:53.835Z,10.83
2019-04-16T00:01:53.810Z,10.76
2019-04-16T00:02:53.790Z,10.80
2019-04-16T00:03:54.863Z,10.77
2019-04-16T00:04:56.695Z,10.69
2019-04-16T00:05:58.426Z,10.68
2019-04-16T00:06:53.705Z,10.71
2019-04-16T00:07:53.684Z,10.75
2019-04-16T00:08:54.187Z,10.76
2019-04-16T00:09:53.654Z,10.72
2019-04-16T00:10:53.690Z,10.68
2019-04-16T00:11:53.770Z,10.75
2019-04-16T00:12:53.961Z,10.57
2019-04-16T00:13:53.557Z,10.57
2019-04-16T00:14:53.538Z,10.57
2019-04-16T00:15:53.518Z,10.65
2019-04-16T00:16:53.501Z,10.59
2019-04-16T00:17:53.475Z,10.59
2019-04-16T00:18:57.815Z,10.59
2019-04-16T00:19:53.433Z,10.65
2019-04-16T00:20:53.415Z,10.64
2019-04-16T00:21:53.397Z,10.58
2019-04-16T00:22:53.370Z,10.61
2019-04-16T00:23:53.350Z,10.59
2019-04-16T00:24:53.328Z,10.57
2019-04-16T00:25:55.593Z,10.58
2019-04-16T00:26:57.843Z,10.49
2019-04-16T00:27:53.263Z,10.49
2019-04-16T00:28:53.243Z,10.48
2019-04-16T00:29:53.222Z,10.53
2019-04-16T00:30:53.200Z,10.46
2019-04-16T00:31:53.179Z,10.45
2019-04-16T00:32:53.164Z,10.38
2019-04-16T00:33:53.165Z,10.41
2019-04-16T00:34:53.116Z,10.38
2019-04-16T00:35:53.095Z,10.41
2019-04-16T00:36:53.075Z,10.33
2019-04-16T00:37:53.054Z,10.36
2019-04-16T00:38:54.106Z,10.39
2019-04-16T00:39:55.614Z,10.34
2019-04-16T00:40:52.990Z,10.36
2019-04-16T00:41:52.969Z,10.38
2019-04-16T00:42:52.947Z,10.33
2019-04-16T00:43:52.934Z,10.36
2019-04-16T00:44:52.905Z,10.38
2019-04-16T00:45:52.883Z,10.36
2019-04-16T00:46:52.866Z,10.36
2019-04-16T00:47:52.846Z,10.33
2019-04-16T00:48:52.823Z,10.30
2019-04-16T00:49:57.729Z,10.33
2019-04-16T00:50:52.782Z,10.36
2019-04-16T00:51:52.757Z,10.33
2019-04-16T00:52:52.735Z,10.28
2019-04-16T00:53:52.714Z,10.31
2019-04-16T00:54:52.698Z,10.23
2019-04-16T00:55:52.672Z,10.36
2019-04-16T00:56:52.663Z,10.18
2019-04-16T00:57:52.629Z,10.34
2019-04-16T00:58:53.083Z,10.27
2019-04-16T00:59:56.136Z,10.24
2019-04-16T01:00:52.565Z,10.25
2019-04-16T01:01:52.545Z,10.28
2019-04-16T01:02:52.525Z,10.21
2019-04-16T01:03:52.503Z,10.18
2019-04-16T01:04:52.480Z,10.17
2019-04-16T01:05:52.462Z,10.18
2019-04-16T01:06:52.437Z,10.12
2019-04-16T01:07:52.415Z,10.20
2019-04-16T01:08:54.774Z,10.17
2019-04-16T01:09:52.376Z,10.21
2019-04-16T01:10:52.350Z,10.25
2019-04-16T01:11:52.332Z,10.23
2019-04-16T01:12:52.308Z,10.15
2019-04-16T01:13:53.215Z,10.20
2019-04-16T01:14:52.265Z,10.13
2019-04-16T01:15:52.244Z,10.18
2019-04-16T01:16:52.227Z,10.12
2019-04-16T01:17:52.203Z,10.00
2019-04-16T01:18:52.181Z,10.03
2019-04-16T01:19:52.158Z,10.00
2019-04-16T01:20:52.141Z,10.03
2019-04-16T01:21:52.117Z,9.97
2019-04-16T01:22:52.094Z,9.99
2019-04-16T01:23:52.077Z,10.03
2019-04-16T01:24:52.700Z,9.99
2019-04-16T01:25:55.337Z,10.05
2019-04-16T01:26:52.008Z,9.95
2019-04-16T01:27:51.989Z,9.97
2019-04-16T01:28:51.965Z,10.00
2019-04-16T01:29:51.945Z,9.94
2019-04-16T01:30:51.922Z,10.02
2019-04-16T01:31:51.900Z,10.03
2019-04-16T01:32:51.882Z,9.97
2019-04-16T01:33:51.862Z,9.95
2019-04-16T01:34:51.838Z,9.90
2019-04-16T01:35:52.720Z,9.91
2019-04-16T01:36:54.364Z,9.90
2019-04-16T01:37:56.529Z,9.92
2019-04-16T01:38:51.749Z,9.87
2019-04-16T01:39:51.731Z,9.88
2019-04-16T01:40:51.707Z,9.81
2019-04-16T01:41:53.300Z,9.74
2019-04-16T01:42:54.419Z,9.80
2019-04-16T01:43:54.162Z,9.84
2019-04-16T01:44:51.624Z,9.76
2019-04-16T01:45:51.609Z,9.76
2019-04-16T01:46:51.583Z,9.76
2019-04-16T01:47:51.559Z,9.70
2019-04-16T01:48:51.532Z,9.74
2019-04-16T01:49:51.515Z,9.72
2019-04-16T01:50:51.493Z,9.72
2019-04-16T01:51:51.470Z,9.70
2019-04-16T01:52:51.448Z,9.64
2019-04-16T01:53:52.299Z,9.67
2019-04-16T01:54:54.830Z,9.69
2019-04-16T01:55:51.385Z,9.63
2019-04-16T01:56:51.362Z,9.66
2019-04-16T01:57:51.338Z,9.64
2019-04-16T01:58:51.320Z,9.64
2019-04-16T01:59:51.301Z,9.62
2019-04-16T02:00:51.274Z,9.64
2019-04-16T02:01:51.274Z,9.63
2019-04-16T02:02:51.238Z,9.55
2019-04-16T02:03:51.208Z,9.56
2019-04-16T02:04:52.078Z,9.62
2019-04-16T02:05:54.618Z,9.62
2019-04-16T02:06:51.155Z,9.64
2019-04-16T02:07:51.126Z,9.54
2019-04-16T02:08:51.102Z,9.55
2019-04-16T02:09:51.079Z,9.59
2019-04-16T02:10:51.055Z,9.64
2019-04-16T02:11:51.035Z,9.66
2019-04-16T02:12:51.022Z,9.59
2019-04-16T02:13:50.991Z,9.64
2019-04-16T02:14:51.200Z,9.52
2019-04-16T02:15:53.390Z,9.52
2019-04-16T02:16:55.788Z,9.49
2019-04-16T02:17:50.904Z,9.58
2019-04-16T02:18:50.883Z,9.52
2019-04-16T02:19:50.860Z,9.59
2019-04-16T02:20:50.850Z,9.55
2019-04-16T02:21:50.815Z,9.52
2019-04-16T02:22:50.804Z,9.55
2019-04-16T02:23:50.816Z,9.55
2019-04-16T02:24:50.758Z,9.54
2019-04-16T02:25:51.317Z,9.58
2019-04-16T02:26:54.607Z,9.44
2019-04-16T02:27:50.688Z,9.47
2019-04-16T02:28:50.666Z,9.51
2019-04-16T02:29:53.631Z,9.47
2019-04-16T02:30:50.640Z,9.52
2019-04-16T02:31:51.557Z,9.48
2019-04-16T02:32:50.579Z,9.44
2019-04-16T02:33:50.559Z,9.44
2019-04-16T02:34:50.534Z,9.47
2019-04-16T02:35:50.520Z,9.40
2019-04-16T02:36:50.497Z,9.39
2019-04-16T02:37:50.469Z,9.36
2019-04-16T02:38:53.255Z,9.37
2019-04-16T02:39:50.427Z,9.39
2019-04-16T02:40:52.805Z,9.39
2019-04-16T02:41:56.791Z,9.39
2019-04-16T02:42:50.357Z,9.33
2019-04-16T02:43:50.336Z,9.40
2019-04-16T02:44:50.503Z,9.37
2019-04-16T02:45:56.473Z,9.47
2019-04-16T02:46:50.269Z,9.47
2019-04-16T02:47:50.251Z,9.39
2019-04-16T02:48:51.638Z,9.47
2019-04-16T02:49:56.380Z,9.48
2019-04-16T02:50:50.183Z,9.42
2019-04-16T02:51:50.161Z,9.48
2019-04-16T02:52:52.366Z,9.40
2019-04-16T02:53:50.124Z,9.44
2019-04-16T02:54:50.118Z,9.48
2019-04-16T02:55:50.072Z,9.45
2019-04-16T02:56:52.145Z,9.40
2019-04-16T02:57:50.037Z,9.44
2019-04-16T02:58:50.007Z,9.39
2019-04-16T02:59:49.984Z,9.37
2019-04-16T03:00:50.814Z,9.37
2019-04-16T03:01:51.905Z,9.40
2019-04-16T03:02:53.578Z,9.36
2019-04-16T03:03:49.897Z,9.36
2019-04-16T03:04:49.873Z,9.36
2019-04-16T03:05:49.854Z,9.36
2019-04-16T03:06:49.831Z,9.36
2019-04-16T03:07:49.860Z,9.36
2019-04-16T03:08:49.787Z,9.37
2019-04-16T03:10:00.550Z,9.39
2019-04-16T03:10:49.746Z,9.40
2019-04-16T03:11:49.718Z,9.33
2019-04-16T03:12:52.136Z,9.39
2019-04-16T03:13:52.835Z,9.40
2019-04-16T03:14:49.653Z,9.37
2019-04-16T03:15:49.637Z,9.40
2019-04-16T03:16:49.609Z,9.36
2019-04-16T03:17:49.589Z,9.39
2019-04-16T03:18:49.566Z,9.44
2019-04-16T03:19:51.391Z,9.40
2019-04-16T03:20:49.520Z,9.37
2019-04-16T03:21:49.497Z,9.37
2019-04-16T03:22:49.474Z,9.39
2019-04-16T03:23:49.455Z,9.37
2019-04-16T03:24:49.432Z,9.34
2019-04-16T03:25:49.408Z,9.39
2019-04-16T03:26:50.403Z,9.36
2019-04-16T03:27:51.465Z,9.36
2019-04-16T03:28:49.343Z,9.34
2019-04-16T03:29:49.324Z,9.42
2019-04-16T03:30:49.304Z,9.44
2019-04-16T03:31:57.493Z,9.40
2019-04-16T03:32:49.256Z,9.34
2019-04-16T03:33:51.090Z,9.29
2019-04-16T03:34:50.554Z,9.22
2019-04-16T03:35:49.189Z,9.26
2019-04-16T03:36:49.164Z,9.26
2019-04-16T03:37:49.141Z,9.27
2019-04-16T03:38:49.120Z,9.19
2019-04-16T03:39:49.099Z,9.22
2019-04-16T03:40:49.077Z,9.22
2019-04-16T03:41:49.054Z,9.22
2019-04-16T03:42:49.037Z,9.18
2019-04-16T03:43:49.008Z,9.27
2019-04-16T03:44:48.986Z,9.24
2019-04-16T03:45:48.964Z,9.18
2019-04-16T03:46:48.943Z,9.26
2019-04-16T03:47:51.433Z,9.24
2019-04-16T03:48:48.897Z,9.12
2019-04-16T03:49:48.885Z,9.16
2019-04-16T03:50:48.853Z,9.15
2019-04-16T03:51:48.842Z,9.15
2019-04-16T03:52:48.809Z,9.13
2019-04-16T03:53:49.655Z,9.12
2019-04-16T03:54:53.710Z,9.11
2019-04-16T03:55:48.742Z,9.11
2019-04-16T03:56:48.720Z,9.00
2019-04-16T03:57:48.696Z,9.11
2019-04-16T03:58:48.689Z,9.05
2019-04-16T03:59:48.653Z,8.96
2019-04-16T04:00:48.699Z,8.97
2019-04-16T04:01:48.615Z,8.97
2019-04-16T04:02:48.607Z,8.93
2019-04-16T04:03:48.565Z,9.02
2019-04-16T04:04:48.571Z,8.93
2019-04-16T04:05:48.524Z,8.90
2019-04-16T04:06:48.500Z,8.96
2019-04-16T04:07:48.475Z,8.92
2019-04-16T04:08:52.961Z,8.96
2019-04-16T04:09:48.430Z,8.92
2019-04-16T04:10:48.410Z,8.92
2019-04-16T04:11:48.390Z,8.87
2019-04-16T04:12:48.363Z,8.95
2019-04-16T04:13:50.195Z,8.82
2019-04-16T04:14:48.322Z,8.81
2019-04-16T04:15:48.296Z,8.87
2019-04-16T04:16:48.277Z,8.81
2019-04-16T04:17:48.252Z,8.82
2019-04-16T04:18:48.229Z,8.71
2019-04-16T04:19:48.209Z,8.75
2019-04-16T04:20:50.745Z,8.74
2019-04-16T04:21:50.554Z,8.82
2019-04-16T04:22:48.139Z,8.77
2019-04-16T04:23:48.117Z,8.63
2019-04-16T04:24:48.093Z,8.74
2019-04-16T04:25:48.076Z,8.63
2019-04-16T04:26:48.050Z,8.59
2019-04-16T04:27:48.029Z,8.66
2019-04-16T04:28:48.654Z,8.64
2019-04-16T04:29:48.016Z,8.69
2019-04-16T04:30:49.011Z,8.60
2019-04-16T04:31:47.937Z,8.57
2019-04-16T04:32:48.020Z,8.66
2019-04-16T04:33:47.892Z,8.57
2019-04-16T04:34:48.813Z,8.60
2019-04-16T04:35:51.016Z,8.68
2019-04-16T04:36:47.825Z,8.63
2019-04-16T04:37:47.803Z,8.60
2019-04-16T04:38:47.781Z,8.61
2019-04-16T04:39:47.761Z,8.53
2019-04-16T04:40:50.515Z,8.53
2019-04-16T04:41:47.711Z,8.39
2019-04-16T04:42:47.694Z,8.41
2019-04-16T04:43:47.670Z,8.39
2019-04-16T04:44:47.658Z,8.50
2019-04-16T04:45:47.621Z,8.46
2019-04-16T04:46:47.602Z,8.49
2019-04-16T04:47:51.360Z,8.49
2019-04-16T04:48:47.554Z,8.38
2019-04-16T04:49:47.533Z,8.44
2019-04-16T04:50:47.508Z,8.35
2019-04-16T04:51:47.487Z,8.45
2019-04-16T04:52:47.464Z,8.44
2019-04-16T04:53:49.950Z,8.31
2019-04-16T04:54:47.417Z,8.42
2019-04-16T04:55:47.395Z,8.41
2019-04-16T04:56:47.372Z,8.44
2019-04-16T04:57:47.349Z,8.42
2019-04-16T04:58:47.326Z,8.28
2019-04-16T04:59:47.307Z,8.44
2019-04-16T05:00:47.285Z,8.32
2019-04-16T05:01:47.262Z,8.39
2019-04-16T05:02:47.240Z,8.39
2019-04-16T05:03:48.178Z,8.39
2019-04-16T05:04:49.603Z,8.28
2019-04-16T05:05:47.167Z,8.44
2019-04-16T05:06:47.145Z,8.41
2019-04-16T05:07:47.125Z,8.38
2019-04-16T05:08:47.100Z,8.42
2019-04-16T05:09:47.076Z,8.34
2019-04-16T05:10:58.305Z,8.44
2019-04-16T05:11:48.580Z,8.44
2019-04-16T05:12:47.007Z,8.42
2019-04-16T05:13:46.987Z,8.35
2019-04-16T05:14:46.964Z,8.41
2019-04-16T05:15:46.941Z,8.36
2019-04-16T05:16:46.917Z,8.44
2019-04-16T05:17:46.895Z,8.42
2019-04-16T05:18:46.872Z,8.46
2019-04-16T05:19:46.851Z,8.32
2019-04-16T05:20:47.600Z,8.44
2019-04-16T05:21:49.625Z,8.41
2019-04-16T05:22:46.784Z,8.38
2019-04-16T05:23:46.761Z,8.45
2019-04-16T05:24:46.738Z,8.46
2019-04-16T05:25:46.717Z,8.34
2019-04-16T05:26:46.694Z,8.41
2019-04-16T05:27:46.671Z,8.46
2019-04-16T05:28:46.643Z,8.45
2019-04-16T05:29:48.936Z,8.44
2019-04-16T05:30:51.787Z,8.41
2019-04-16T05:31:46.581Z,8.52
2019-04-16T05:32:46.554Z,8.54
2019-04-16T05:33:46.531Z,8.50
2019-04-16T05:34:46.508Z,8.46
2019-04-16T05:35:46.487Z,8.52
2019-04-16T05:36:47.982Z,8.41
2019-04-16T05:37:48.511Z,8.49
2019-04-16T05:38:46.418Z,8.54
2019-04-16T05:39:46.395Z,8.46
2019-04-16T05:40:46.372Z,8.53
2019-04-16T05:41:46.350Z,8.54
2019-04-16T05:42:46.326Z,8.64
2019-04-16T05:43:46.303Z,8.63
2019-04-16T05:44:46.280Z,8.69
2019-04-16T05:45:46.258Z,8.64
2019-04-16T05:46:46.813Z,8.68
2019-04-16T05:47:48.772Z,8.68
2019-04-16T05:48:46.195Z,8.71
2019-04-16T05:49:46.171Z,8.74
2019-04-16T05:50:46.144Z,8.68
2019-04-16T05:51:46.122Z,8.77
2019-04-16T05:52:46.098Z,8.69
2019-04-16T05:53:46.076Z,8.72
2019-04-16T05:54:46.054Z,8.75
2019-04-16T05:55:49.529Z,8.81
2019-04-16T05:56:46.010Z,8.81
2019-04-16T05:57:45.985Z,8.95
2019-04-16T05:58:45.963Z,8.96
2019-04-16T05:59:45.948Z,8.97
2019-04-16T06:00:45.918Z,8.93
2019-04-16T06:01:46.213Z,8.93
2019-04-16T06:02:49.697Z,9.11
2019-04-16T06:03:45.850Z,9.03
2019-04-16T06:04:45.830Z,9.00
2019-04-16T06:05:45.805Z,9.15
2019-04-16T06:06:45.782Z,9.15
2019-04-16T06:07:45.763Z,9.27
2019-04-16T06:08:45.795Z,9.31
2019-04-16T06:09:45.716Z,9.21
2019-04-16T06:10:50.011Z,9.21
2019-04-16T06:11:45.672Z,9.31
2019-04-16T06:12:45.647Z,9.42
2019-04-16T06:13:45.625Z,9.34
2019-04-16T06:14:46.475Z,9.40
2019-04-16T06:15:45.581Z,9.48
2019-04-16T06:16:45.566Z,9.52
2019-04-16T06:17:45.667Z,9.44
2019-04-16T06:18:45.515Z,9.58
2019-04-16T06:19:46.916Z,9.51
2019-04-16T06:20:45.472Z,9.63
2019-04-16T06:21:45.453Z,9.64
2019-04-16T06:22:45.427Z,9.63
2019-04-16T06:23:48.093Z,9.74
2019-04-16T06:24:45.381Z,9.74
2019-04-16T06:25:45.359Z,9.77
2019-04-16T06:26:47.396Z,9.84
2019-04-16T06:27:45.315Z,9.91
2019-04-16T06:28:45.295Z,9.90
2019-04-16T06:29:47.074Z,9.92
2019-04-16T06:30:45.249Z,9.94
2019-04-16T06:31:45.227Z,10.05
2019-04-16T06:32:45.206Z,9.99
2019-04-16T06:33:45.183Z,10.03
2019-04-16T06:34:45.162Z,10.03
2019-04-16T06:35:45.140Z,10.12
2019-04-16T06:36:45.118Z,10.21
2019-04-16T06:37:45.812Z,10.18
2019-04-16T06:38:45.080Z,10.21
2019-04-16T06:39:45.051Z,10.28
2019-04-16T06:40:45.029Z,10.31
2019-04-16T06:41:47.696Z,10.36
2019-04-16T06:42:44.989Z,10.34
2019-04-16T06:43:44.965Z,10.34
2019-04-16T06:44:44.956Z,10.34
2019-04-16T06:45:44.921Z,10.33
2019-04-16T06:46:45.020Z,10.34
2019-04-16T06:47:44.882Z,10.39
2019-04-16T06:48:45.974Z,10.48
2019-04-16T06:49:48.239Z,10.45
2019-04-16T06:50:44.815Z,10.43
2019-04-16T06:51:44.832Z,10.58
2019-04-16T06:52:46.200Z,10.64
2019-04-16T06:53:44.747Z,10.64
2019-04-16T06:54:45.629Z,10.62
2019-04-16T06:55:44.707Z,10.67
2019-04-16T06:56:44.684Z,10.68
2019-04-16T06:57:44.665Z,10.71
2019-04-16T06:58:51.093Z,10.68
2019-04-16T06:59:44.628Z,10.77
2019-04-16T07:00:44.597Z,10.77
2019-04-16T07:01:44.575Z,10.82
2019-04-16T07:03:01.341Z,10.83
2019-04-16T07:03:44.534Z,10.92
2019-04-16T07:04:44.534Z,10.90
2019-04-16T07:05:44.489Z,10.98
2019-04-16T07:06:44.472Z,11.01
2019-04-16T07:07:46.819Z,11.08
2019-04-16T07:08:44.425Z,11.08
2019-04-16T07:09:46.034Z,11.10
2019-04-16T07:10:45.000Z,11.19
2019-04-16T07:11:54.408Z,11.15
2019-04-16T07:12:44.360Z,11.25
2019-04-16T07:13:44.410Z,11.25
2019-04-16T07:14:45.592Z,11.22
2019-04-16T07:15:44.278Z,11.27
2019-04-16T07:16:44.257Z,11.35
2019-04-16T07:17:44.240Z,11.35
2019-04-16T07:18:44.213Z,11.43
2019-04-16T07:19:44.195Z,11.38
2019-04-16T07:20:45.752Z,11.45
2019-04-16T07:21:48.741Z,11.48
2019-04-16T07:22:44.182Z,11.51
2019-04-16T07:23:46.534Z,11.62
2019-04-16T07:24:44.428Z,11.62
2019-04-16T07:25:45.193Z,11.70
2019-04-16T07:26:47.651Z,11.73
2019-04-16T07:27:44.030Z,11.71
2019-04-16T07:28:44.003Z,11.76
2019-04-16T07:29:46.406Z,11.83
2019-04-16T07:30:44.033Z,11.86
2019-04-16T07:31:44.053Z,11.91
2019-04-16T07:32:43.921Z,11.91
2019-04-16T07:33:43.900Z,11.99
2019-04-16T07:34:43.882Z,11.89
2019-04-16T07:35:43.860Z,11.89
2019-04-16T07:36:43.839Z,12.08
2019-04-16T07:37:43.817Z,12.00
2019-04-16T07:38:43.797Z,12.03
2019-04-16T07:39:46.360Z,12.10
2019-04-16T07:40:43.757Z,12.10
2019-04-16T07:41:43.876Z,12.12
2019-04-16T07:42:51.653Z,12.14
2019-04-16T07:43:44.073Z,12.12
2019-04-16T07:44:43.673Z,12.17
2019-04-16T07:45:43.653Z,12.25
2019-04-16T07:46:44.264Z,12.25
2019-04-16T07:47:43.615Z,12.26
2019-04-16T07:48:43.593Z,12.35
2019-04-16T07:49:43.572Z,12.40
2019-04-16T07:50:43.551Z,12.36
2019-04-16T07:51:43.530Z,12.39
2019-04-16T07:52:43.509Z,12.43
2019-04-16T07:53:47.209Z,12.48
2019-04-16T07:54:43.469Z,12.47
2019-04-16T07:55:43.449Z,12.51
2019-04-16T07:56:43.427Z,12.54
2019-04-16T07:57:43.407Z,12.54
2019-04-16T07:58:43.387Z,12.57
2019-04-16T07:59:43.368Z,12.57
2019-04-16T08:00:43.351Z,12.61
2019-04-16T08:01:44.002Z,12.63
2019-04-16T08:02:43.306Z,12.70
2019-04-16T08:03:43.293Z,12.76
2019-04-16T08:04:43.267Z,12.73
2019-04-16T08:05:43.249Z,12.84
2019-04-16T08:06:46.232Z,12.87
2019-04-16T08:07:43.206Z,12.86
2019-04-16T08:08:43.185Z,12.86
2019-04-16T08:09:43.164Z,12.88
2019-04-16T08:10:43.147Z,12.87
2019-04-16T08:11:43.179Z,12.84
2019-04-16T08:12:43.107Z,12.93
2019-04-16T08:13:43.085Z,13.01
2019-04-16T08:14:43.069Z,13.05
2019-04-16T08:15:43.045Z,12.98
2019-04-16T08:16:47.579Z,13.06
2019-04-16T08:17:43.006Z,13.05
2019-04-16T08:18:42.983Z,13.06
2019-04-16T08:19:44.696Z,13.06
2019-04-16T08:20:42.944Z,13.19
2019-04-16T08:21:44.290Z,13.16
2019-04-16T08:22:47.195Z,13.20
2019-04-16T08:23:42.887Z,13.24
2019-04-16T08:24:42.865Z,13.30
2019-04-16T08:25:42.845Z,13.33
2019-04-16T08:26:45.085Z,13.36
2019-04-16T08:27:42.814Z,13.37
2019-04-16T08:28:42.787Z,13.36
2019-04-16T08:29:42.764Z,13.42
2019-04-16T08:30:42.758Z,13.46
2019-04-16T08:31:44.497Z,13.47
2019-04-16T08:32:45.865Z,13.54
2019-04-16T08:33:42.709Z,13.57
2019-04-16T08:34:42.682Z,13.54
2019-04-16T08:35:42.646Z,13.62
2019-04-16T08:36:42.626Z,13.49
2019-04-16T08:37:49.189Z,13.60
2019-04-16T08:38:42.774Z,13.68
2019-04-16T08:39:42.582Z,13.68
2019-04-16T08:40:46.077Z,13.60
2019-04-16T08:41:42.708Z,13.75
2019-04-16T08:42:44.706Z,13.70
2019-04-16T08:43:42.564Z,13.68
2019-04-16T08:44:42.509Z,13.78
2019-04-16T08:45:43.010Z,13.76
2019-04-16T08:46:42.508Z,13.83
2019-04-16T08:47:44.970Z,13.89
2019-04-16T08:48:42.434Z,13.94
2019-04-16T08:49:42.551Z,13.97
2019-04-16T08:50:42.394Z,14.04
2019-04-16T08:51:42.361Z,14.12
2019-04-16T08:52:42.606Z,14.12
2019-04-16T08:53:43.759Z,14.16
2019-04-16T08:54:42.290Z,14.26
2019-04-16T08:55:42.293Z,14.30
2019-04-16T08:56:43.337Z,14.22
2019-04-16T08:57:42.228Z,14.34
2019-04-16T08:58:42.206Z,14.37
2019-04-16T08:59:42.599Z,14.31
2019-04-16T09:00:45.998Z,14.41
2019-04-16T09:01:42.173Z,14.44
2019-04-16T09:02:42.123Z,14.44
2019-04-16T09:03:42.104Z,14.51
2019-04-16T09:04:42.087Z,14.56
2019-04-16T09:05:42.153Z,14.66
2019-04-16T09:06:42.646Z,14.68
2019-04-16T09:07:42.028Z,14.63
2019-04-16T09:08:42.008Z,14.71
2019-04-16T09:09:41.989Z,14.71
2019-04-16T09:10:44.511Z,14.73
2019-04-16T09:11:41.955Z,14.74
2019-04-16T09:12:46.046Z,14.89
2019-04-16T09:13:44.478Z,14.96
2019-04-16T09:14:41.992Z,14.92
2019-04-16T09:15:41.885Z,14.93
2019-04-16T09:16:43.579Z,15.05
2019-04-16T09:17:42.651Z,15.04
2019-04-16T09:18:41.914Z,15.10
2019-04-16T09:19:41.812Z,14.99
2019-04-16T09:20:41.973Z,15.14
2019-04-16T09:21:44.383Z,15.19
2019-04-16T09:22:48.745Z,15.19
2019-04-16T09:23:41.982Z,15.26
2019-04-16T09:24:41.795Z,15.29
2019-04-16T09:25:45.185Z,15.30
2019-04-16T09:26:43.797Z,15.39
2019-04-16T09:27:41.725Z,15.39
2019-04-16T09:28:41.665Z,15.37
2019-04-16T09:29:41.634Z,15.41
2019-04-16T09:30:41.602Z,15.48
2019-04-16T09:31:41.583Z,15.43
2019-04-16T09:32:41.683Z,15.52
2019-04-16T09:33:41.550Z,15.45
2019-04-16T09:34:41.527Z,15.43
2019-04-16T09:35:41.518Z,15.48
2019-04-16T09:36:41.499Z,15.54
2019-04-16T09:37:41.483Z,15.55
2019-04-16T09:38:45.211Z,15.55
2019-04-16T09:39:41.440Z,15.57
2019-04-16T09:40:41.422Z,15.67
2019-04-16T09:41:41.399Z,15.63
2019-04-16T09:42:41.382Z,15.63
2019-04-16T09:43:41.365Z,15.62
2019-04-16T09:44:41.378Z,15.69
2019-04-16T09:45:41.331Z,15.73
2019-04-16T09:46:59.450Z,15.70
2019-04-16T09:47:41.296Z,15.81
2019-04-16T09:48:41.274Z,15.83
2019-04-16T09:49:41.256Z,15.88
2019-04-16T09:50:46.683Z,15.88
2019-04-16T09:51:41.219Z,15.94
2019-04-16T09:52:41.267Z,15.99
2019-04-16T09:53:41.186Z,16.00
2019-04-16T09:54:41.564Z,15.96
2019-04-16T09:55:41.149Z,16.03
2019-04-16T09:56:41.131Z,16.03
2019-04-16T09:57:41.114Z,16.09
2019-04-16T09:58:42.675Z,16.16
2019-04-16T09:59:41.079Z,16.17
2019-04-16T10:00:41.061Z,16.22
2019-04-16T10:01:41.045Z,16.18
2019-04-16T10:02:41.028Z,16.31
2019-04-16T10:03:41.008Z,16.32
2019-04-16T10:04:40.990Z,16.36
2019-04-16T10:05:41.048Z,16.34
2019-04-16T10:06:41.012Z,16.47
2019-04-16T10:07:41.157Z,16.44
2019-04-16T10:08:44.567Z,16.47
2019-04-16T10:09:40.965Z,16.51
2019-04-16T10:10:40.905Z,16.57
2019-04-16T10:11:40.894Z,16.58
2019-04-16T10:12:40.858Z,16.59
2019-04-16T10:13:40.852Z,16.73
2019-04-16T10:14:40.838Z,16.80
2019-04-16T10:15:41.216Z,16.73
2019-04-16T10:16:40.788Z,16.77
2019-04-16T10:17:40.780Z,16.74
2019-04-16T10:18:40.771Z,16.91
2019-04-16T10:19:43.254Z,16.87
2019-04-16T10:20:40.713Z,16.98
2019-04-16T10:21:40.697Z,17.05
2019-04-16T10:22:40.695Z,17.07
2019-04-16T10:23:40.685Z,17.14
2019-04-16T10:24:40.660Z,17.10
2019-04-16T10:25:40.643Z,17.28
2019-04-16T10:26:40.615Z,17.30
2019-04-16T10:27:40.615Z,17.41
2019-04-16T10:28:40.580Z,17.30
2019-04-16T10:29:40.561Z,17.38
2019-04-16T10:30:40.545Z,17.44
2019-04-16T10:31:40.541Z,17.50
2019-04-16T10:32:40.545Z,17.68
2019-04-16T10:33:40.509Z,17.84
2019-04-16T10:34:40.503Z,17.93
2019-04-16T10:35:40.468Z,18.05
2019-04-16T10:36:40.460Z,18.12
2019-04-16T10:37:40.469Z,18.33
2019-04-16T10:38:40.440Z,18.43
2019-04-16T10:39:40.415Z,18.73
2019-04-16T10:40:40.400Z,19.00
2019-04-16T10:41:40.383Z,19.19
2019-04-16T10:42:40.399Z,19.38
2019-04-16T10:43:44.751Z,19.74
2019-04-16T10:44:40.346Z,20.18
2019-04-16T10:45:40.378Z,20.73
2019-04-16T10:46:40.394Z,21.56
2019-04-16T10:47:40.309Z,22.04
2019-04-16T10:48:40.322Z,22.65
2019-04-16T10:49:40.298Z,22.98
2019-04-16T10:50:40.273Z,23.10
2019-04-16T10:51:40.275Z,23.25
2019-04-16T10:52:40.266Z,23.32
2019-04-16T10:53:40.262Z,23.47
2019-04-16T10:54:40.222Z,23.16
2019-04-16T10:55:40.216Z,23.11
2019-04-16T10:56:40.331Z,23.11
2019-04-16T10:57:40.206Z,23.29
2019-04-16T10:58:40.178Z,23.40
2019-04-16T10:59:40.167Z,23.56
2019-04-16T11:00:40.158Z,23.59
2019-04-16T11:01:40.175Z,23.71
2019-04-16T11:02:40.144Z,23.67
2019-04-16T11:03:40.127Z,23.66
2019-04-16T11:04:43.042Z,23.45
2019-04-16T11:05:40.108Z,23.07
2019-04-16T11:06:40.096Z,22.80
2019-04-16T11:07:40.096Z,22.80
2019-04-16T11:08:40.101Z,22.78
2019-04-16T11:09:40.061Z,22.73
2019-04-16T11:10:40.065Z,22.83
2019-04-16T11:11:40.038Z,22.91
2019-04-16T11:12:40.050Z,23.16
2019-04-16T11:13:40.080Z,23.34
2019-04-16T11:14:40.037Z,23.62
2019-04-16T11:15:40.266Z,23.79
2019-04-16T11:16:39.985Z,24.19
2019-04-16T11:17:39.972Z,24.43
2019-04-16T11:18:39.972Z,24.62
2019-04-16T11:19:40.090Z,24.62
2019-04-16T11:20:39.974Z,24.71
2019-04-16T11:21:39.950Z,24.79
2019-04-16T11:22:39.935Z,24.58
2019-04-16T11:23:40.087Z,24.48
2019-04-16T11:24:39.915Z,24.50
2019-04-16T11:25:39.885Z,24.51
2019-04-16T11:26:39.873Z,24.62
2019-04-16T11:27:39.864Z,24.62
2019-04-16T11:28:39.854Z,24.55
2019-04-16T11:29:41.937Z,24.53
2019-04-16T11:30:39.833Z,24.28
2019-04-16T11:31:39.840Z,24.19
2019-04-16T11:32:40.272Z,23.99
2019-04-16T11:33:39.805Z,23.85
2019-04-16T11:34:39.786Z,23.85
2019-04-16T11:35:39.809Z,23.70
2019-04-16T11:36:39.764Z,23.66
2019-04-16T11:37:43.613Z,23.45
2019-04-16T11:38:39.744Z,23.47
2019-04-16T11:39:39.737Z,23.45
2019-04-16T11:40:41.215Z,23.51
2019-04-16T11:41:39.717Z,23.66
2019-04-16T11:42:39.738Z,23.67
2019-04-16T11:43:39.696Z,23.76
2019-04-16T11:44:39.714Z,23.89
2019-04-16T11:45:39.700Z,24.00
2019-04-16T11:46:39.751Z,24.37
2019-04-16T11:47:39.649Z,24.69
2019-04-16T11:48:39.674Z,25.16
2019-04-16T11:49:39.683Z,25.46
2019-04-16T11:50:39.669Z,25.81
2019-04-16T11:51:39.642Z,26.18
2019-04-16T11:52:40.026Z,26.42
2019-04-16T11:53:39.601Z,26.86
2019-04-16T11:54:40.246Z,27.20
2019-04-16T11:55:39.574Z,27.55
2019-04-16T11:56:39.584Z,27.88
2019-04-16T11:57:39.560Z,27.95
2019-04-16T11:58:39.577Z,28.08
2019-04-16T11:59:39.543Z,28.22
2019-04-16T12:00:39.668Z,28.31
2019-04-16T12:01:39.566Z,28.37
2019-04-16T12:02:39.546Z,28.45
2019-04-16T12:03:39.551Z,28.43
2019-04-16T12:04:39.575Z,28.40
2019-04-16T12:05:39.559Z,28.50
2019-04-16T12:06:39.499Z,28.46
2019-04-16T12:07:39.531Z,28.53
2019-04-16T12:08:39.565Z,28.43
2019-04-16T12:09:39.471Z,28.34
2019-04-16T12:10:39.496Z,28.46
2019-04-16T12:11:39.467Z,28.46
2019-04-16T12:12:39.478Z,28.71
2019-04-16T12:13:39.450Z,29.03
2019-04-16T12:14:42.453Z,29.16
2019-04-16T12:15:39.469Z,29.24
2019-04-16T12:16:39.475Z,29.24
2019-04-16T12:17:39.462Z,29.28
2019-04-16T12:18:39.467Z,29.35
2019-04-16T12:19:39.449Z,29.73
2019-04-16T12:20:39.430Z,29.96
2019-04-16T12:21:39.406Z,30.32
2019-04-16T12:22:39.436Z,30.69
2019-04-16T12:23:39.399Z,31.00
2019-04-16T12:24:39.444Z,31.17
2019-04-16T12:25:39.437Z,30.85
2019-04-16T12:26:39.410Z,31.22
2019-04-16T12:27:39.442Z,31.39
2019-04-16T12:28:43.219Z,31.73
2019-04-16T12:29:39.391Z,32.02
2019-04-16T12:30:39.402Z,32.31
2019-04-16T12:31:39.428Z,32.59
2019-04-16T12:32:39.422Z,32.73
2019-04-16T12:33:39.378Z,32.79
2019-04-16T12:34:39.407Z,33.05
2019-04-16T12:35:39.373Z,33.12
2019-04-16T12:36:39.496Z,33.01
2019-04-16T12:37:39.446Z,32.79
2019-04-16T12:38:39.420Z,32.44
2019-04-16T12:39:39.388Z,31.86
2019-04-16T12:40:42.136Z,31.44
2019-04-16T12:41:39.355Z,31.15
2019-04-16T12:42:42.336Z,30.99
2019-04-16T12:43:39.370Z,30.77
2019-04-16T12:44:45.556Z,30.54
2019-04-16T12:45:39.343Z,30.14
2019-04-16T12:46:39.388Z,29.68
2019-04-16T12:47:39.331Z,29.64
2019-04-16T12:48:39.377Z,29.40
2019-04-16T12:49:39.436Z,29.27
2019-04-16T12:50:39.372Z,29.55
2019-04-16T12:51:40.779Z,29.69
2019-04-16T12:52:39.345Z,29.90
2019-04-16T12:53:39.314Z,29.79
2019-04-16T12:54:39.315Z,30.21
2019-04-16T12:55:39.341Z,30.55
2019-04-16T12:56:41.170Z,31.14
2019-04-16T12:57:39.312Z,31.82
2019-04-16T12:58:39.288Z,32.17
2019-04-16T12:59:39.286Z,32.26
2019-04-16T13:00:39.282Z,32.48
2019-04-16T13:01:39.287Z,32.82
2019-04-16T13:02:41.960Z,32.93